Time;durP1;ratioP1;P1;durP2;ratioP2;P2;SDS_P1;SDS_P2;PMS_P1;PMS_P2;Temp;Humidity;BMP_temperature;BMP_pressure;BME280_temperature;BME280_humidity;BME280_pressure;Samples;Min_cycle;Max_cycle;Signal;HPM_P1;HPM_P2
2023/03/27 05:36:22;;;;;;;;;2.00;2.00;;;;;;;;5014923;28;50184;-70
2023/03/27 05:38:47;;;;;;;;;3.00;2.00;;;;;;;;5033553;28;50504;-76
2023/03/27 05:41:14;;;;;;;;;0.75;0.50;;;;;;;;5028605;28;50187;-72
2023/03/27 05:43:40;;;;;;;;;0.00;0.00;;;;;;;;5028778;28;49787;-71
2023/03/27 05:46:06;;;;;;;;;1.75;1.75;;;;;;;;5028856;28;49880;-71
2023/03/27 05:48:31;;;;;;;;;0.75;0.75;;;;;;;;5028434;28;50322;-73
2023/03/27 05:50:56;;;;;;;;;2.00;2.00;;;;;;;;5028079;28;50004;-73
2023/03/27 05:53:22;;;;;;;;;7.50;2.25;;;;;;;;5028712;28;50371;-74
2023/03/27 05:55:47;;;;;;;;;1.00;1.00;;;;;;;;5028557;28;50117;-73
2023/03/27 05:58:12;;;;;;;;;5.50;2.75;;;;;;;;5028361;28;50172;-71
2023/03/27 06:00:41;;;;;;;;;2.00;2.00;;;;;;;;5028370;28;49662;-69
2023/03/27 06:03:08;;;;;;;;;0.50;0.50;;;;;;;;5028432;28;49800;-68
2023/03/27 06:05:34;;;;;;;;;3.00;1.75;;;;;;;;5028417;28;50008;-75
2023/03/27 06:08:00;;;;;;;;;1.00;1.00;;;;;;;;5028016;28;49771;-69
2023/03/27 06:10:26;;;;;;;;;5.00;2.00;;;;;;;;5027713;28;50155;-69
2023/03/27 06:12:59;;;;;;;;;1.75;1.75;;;;;;;;5026025;28;49837;-70
2023/03/27 06:15:25;;;;;;;;;2.75;2.25;;;;;;;;5015043;28;50308;-71
2023/03/27 06:17:50;;;;;;;;;3.25;2.25;;;;;;;;5025003;28;49745;-71
2023/03/27 06:20:15;;;;;;;;;2.75;1.75;;;;;;;;5027650;28;49907;-71
2023/03/27 06:22:51;;;;;;;;;3.00;1.00;;;;;;;;5028227;28;49919;-72
2023/03/27 06:25:17;;;;;;;;;3.00;1.50;;;;;;;;5012142;28;50064;-71
2023/03/27 06:27:44;;;;;;;;;3.00;1.25;;;;;;;;5027726;28;50095;-71
2023/03/27 06:30:10;;;;;;;;;4.00;2.75;;;;;;;;5027931;28;49807;-71
2023/03/27 06:32:35;;;;;;;;;1.00;1.00;;;;;;;;5027992;28;50082;-71
2023/03/27 06:35:01;;;;;;;;;3.00;2.00;;;;;;;;5027748;28;50115;-70
2023/03/27 06:37:26;;;;;;;;;1.00;1.00;;;;;;;;5026649;28;49912;-70
2023/03/27 06:39:53;;;;;;;;;3.00;2.25;;;;;;;;5027615;28;49846;-70
2023/03/27 06:42:19;;;;;;;;;4.75;1.25;;;;;;;;5027650;28;49795;-71
2023/03/27 06:44:44;;;;;;;;;4.50;3.25;;;;;;;;5030447;28;49757;-71
2023/03/27 06:47:09;;;;;;;;;2.00;2.00;;;;;;;;5031040;28;51562;-71
2023/03/27 06:49:34;;;;;;;;;3.25;3.00;;;;;;;;5031372;28;49870;-71
2023/03/27 06:52:00;;;;;;;;;2.00;1.00;;;;;;;;5029373;28;50159;-71
2023/03/27 06:54:25;;;;;;;;;3.00;3.00;;;;;;;;5013037;28;50256;-71
2023/03/27 06:56:50;;;;;;;;;3.00;1.00;;;;;;;;5031050;28;50148;-71
2023/03/27 06:59:15;;;;;;;;;1.00;1.00;;;;;;;;5031007;28;49872;-71
2023/03/27 07:01:42;;;;;;;;;6.25;5.50;;;;;;;;5031096;28;49918;-71
2023/03/27 07:04:07;;;;;;;;;4.50;3.00;;;;;;;;5029564;28;49849;-73
2023/03/27 07:06:32;;;;;;;;;4.50;1.00;;;;;;;;5030853;28;50210;-72
2023/03/27 07:08:58;;;;;;;;;4.50;2.75;;;;;;;;5031146;28;49797;-72
2023/03/27 07:11:24;;;;;;;;;4.00;2.75;;;;;;;;5030903;28;49926;-72
2023/03/27 07:13:49;;;;;;;;;1.25;1.25;;;;;;;;5030267;28;50203;-72
2023/03/27 07:16:14;;;;;;;;;5.25;3.75;;;;;;;;5030783;28;49890;-72
2023/03/27 07:18:40;;;;;;;;;3.75;3.00;;;;;;;;5012347;28;49872;-71
2023/03/27 07:21:07;;;;;;;;;5.00;4.00;;;;;;;;5030614;28;49832;-71
2023/03/27 07:23:32;;;;;;;;;1.75;1.75;;;;;;;;5030871;28;49795;-71
2023/03/27 07:25:58;;;;;;;;;2.00;2.00;;;;;;;;5030477;28;49799;-72
2023/03/27 07:28:23;;;;;;;;;3.25;3.00;;;;;;;;5030635;28;50565;-72
2023/03/27 07:30:48;;;;;;;;;2.00;2.00;;;;;;;;5029793;28;50105;-71
2023/03/27 07:33:13;;;;;;;;;2.25;2.25;;;;;;;;5030595;28;49792;-72
2023/03/27 07:35:42;;;;;;;;;5.25;2.25;;;;;;;;5025288;28;50247;-71
2023/03/27 07:38:08;;;;;;;;;3.25;3.00;;;;;;;;4992612;28;49682;-71
2023/03/27 07:40:34;;;;;;;;;1.25;1.25;;;;;;;;5009628;28;49733;-71
2023/03/27 07:42:59;;;;;;;;;1.50;1.50;;;;;;;;5010527;28;50004;-71
2023/03/27 07:45:25;;;;;;;;;0.50;0.50;;;;;;;;5006464;28;51451;-72
2023/03/27 07:47:50;;;;;;;;;1.00;1.00;;;;;;;;5010733;28;49741;-72
2023/03/27 07:50:16;;;;;;;;;0.75;0.75;;;;;;;;5010531;28;50143;-72
2023/03/27 07:52:44;;;;;;;;;1.00;0.00;;;;;;;;4992730;28;50027;-72
2023/03/27 07:55:11;;;;;;;;;1.75;0.25;;;;;;;;5009198;28;50169;-71
2023/03/27 07:57:43;;;;;;;;;0.50;0.50;;;;;;;;5010347;28;49782;-71
2023/03/27 08:00:10;;;;;;;;;2.25;1.00;;;;;;;;5009786;28;49808;-71
2023/03/27 08:02:36;;;;;;;;;2.50;0.00;;;;;;;;5010552;28;50329;-72
2023/03/27 08:05:04;;;;;;;;;1.25;1.25;;;;;;;;5009479;28;50240;-72
2023/03/27 08:07:29;;;;;;;;;2.00;1.00;;;;;;;;5009927;28;49635;-72
2023/03/27 08:09:56;;;;;;;;;2.00;2.00;;;;;;;;5020945;28;50275;-72
2023/03/27 08:12:21;;;;;;;;;2.00;0.00;;;;;;;;5002909;28;49931;-71
2023/03/27 08:14:47;;;;;;;;;2.75;1.25;;;;;;;;5009375;28;50140;-71
2023/03/27 08:17:12;;;;;;;;;1.00;0.00;;;;;;;;5010266;28;50581;-71
2023/03/27 08:19:37;;;;;;;;;1.50;1.00;;;;;;;;5009960;28;50123;-72
2023/03/27 08:22:03;;;;;;;;;4.25;2.50;;;;;;;;5009768;28;50138;-72
2023/03/27 08:24:28;;;;;;;;;1.00;0.00;;;;;;;;5009641;28;50651;-71
2023/03/27 08:26:53;;;;;;;;;0.75;0.75;;;;;;;;5009766;28;49841;-71
2023/03/27 08:29:19;;;;;;;;;2.00;2.00;;;;;;;;5008505;28;49723;-71
2023/03/27 08:31:44;;;;;;;;;1.00;1.00;;;;;;;;5009694;28;49985;-72
2023/03/27 08:34:10;;;;;;;;;1.50;1.50;;;;;;;;5009227;28;50368;-77
2023/03/27 08:36:35;;;;;;;;;1.75;1.75;;;;;;;;5009379;28;50138;-78
2023/03/27 08:39:01;;;;;;;;;1.00;1.00;;;;;;;;5009884;28;49899;-71
2023/03/27 08:41:29;;;;;;;;;0.00;0.00;;;;;;;;5009575;28;49925;-72
2023/03/27 08:43:57;;;;;;;;;1.50;1.50;;;;;;;;5009308;28;50437;-71
2023/03/27 08:46:27;;;;;;;;;4.00;2.25;;;;;;;;5007744;28;50226;-71
2023/03/27 08:48:52;;;;;;;;;2.75;2.75;;;;;;;;5006303;28;49731;-71
2023/03/27 08:51:22;;;;;;;;;2.40;2.00;;;;;;;;5009192;28;50578;-71
2023/03/27 08:54:07;;;;;;;;;1.50;1.50;;;;;;;;5009937;28;50130;-71
2023/03/27 08:56:33;;;;;;;;;2.00;2.00;;;;;;;;5007597;28;49848;-71
2023/03/27 08:58:58;;;;;;;;;1.25;1.25;;;;;;;;5007938;28;49778;-71
2023/03/27 09:01:44;;;;;;;;;0.50;0.00;;;;;;;;5014962;28;50468;-71
2023/03/27 09:04:18;;;;;;;;;1.00;1.00;;;;;;;;5011795;28;50136;-71
2023/03/27 09:06:44;;;;;;;;;2.00;1.00;;;;;;;;5007441;28;49730;-71
2023/03/27 09:09:19;;;;;;;;;0.80;0.80;;;;;;;;5009304;28;50054;-71
2023/03/27 09:11:53;;;;;;;;;2.50;1.00;;;;;;;;5010102;28;50056;-71
2023/03/27 09:14:26;;;;;;;;;1.00;1.00;;;;;;;;5011470;28;50127;-71
2023/03/27 09:16:54;;;;;;;;;1.25;1.25;;;;;;;;5012086;28;49821;-72
2023/03/27 09:19:34;;;;;;;;;1.00;0.75;;;;;;;;5015363;28;50204;-68
2023/03/27 09:22:04;;;;;;;;;1.25;0.25;;;;;;;;5009278;28;49964;-69
2023/03/27 09:24:35;;;;;;;;;1.00;1.00;;;;;;;;5008265;28;50655;-69
2023/03/27 09:27:13;;;;;;;;;1.00;1.00;;;;;;;;5007926;28;49757;-72
2023/03/27 09:29:40;;;;;;;;;4.25;0.75;;;;;;;;5008192;28;49717;-69
2023/03/27 09:32:09;;;;;;;;;0.00;0.00;;;;;;;;5002913;28;50090;-69
2023/03/27 09:34:35;;;;;;;;;2.00;0.25;;;;;;;;5001824;28;51992;-69
2023/03/27 09:37:01;;;;;;;;;1.00;1.00;;;;;;;;5000585;28;49919;-69
2023/03/27 09:39:31;;;;;;;;;0.50;0.50;;;;;;;;5004037;28;50191;-70
2023/03/27 09:41:59;;;;;;;;;0.25;0.00;;;;;;;;4999710;28;49792;-69
2023/03/27 09:44:26;;;;;;;;;1.50;1.00;;;;;;;;4998739;28;50744;-69
2023/03/27 09:47:03;;;;;;;;;0.50;0.00;;;;;;;;5001327;28;50120;-70
2023/03/27 09:49:28;;;;;;;;;3.50;2.50;;;;;;;;5001153;28;50054;-69
2023/03/27 09:51:55;;;;;;;;;1.00;1.00;;;;;;;;5001288;28;50128;-69
2023/03/27 09:54:22;;;;;;;;;1.50;1.00;;;;;;;;5000619;28;50051;-70
2023/03/27 09:56:53;;;;;;;;;4.00;1.00;;;;;;;;4999924;28;49807;-69
2023/03/27 09:59:24;;;;;;;;;0.00;0.00;;;;;;;;5000986;28;49820;-69
2023/03/27 10:01:54;;;;;;;;;1.00;1.00;;;;;;;;4999646;28;50043;-69
2023/03/27 10:04:21;;;;;;;;;1.00;1.00;;;;;;;;4998343;28;49832;-70
2023/03/27 10:06:56;;;;;;;;;1.75;1.75;;;;;;;;5001575;28;50288;-70
2023/03/27 10:09:26;;;;;;;;;0.00;0.00;;;;;;;;4998716;28;49915;-69
2023/03/27 10:11:58;;;;;;;;;0.00;0.00;;;;;;;;5000513;28;49885;-69
2023/03/27 10:14:25;;;;;;;;;1.00;0.75;;;;;;;;4998652;28;50250;-70
2023/03/27 10:16:50;;;;;;;;;1.00;0.75;;;;;;;;4998552;28;50062;-69
2023/03/27 10:19:21;;;;;;;;;0.75;0.75;;;;;;;;5001722;28;50235;-69
2023/03/27 10:21:46;;;;;;;;;1.75;1.75;;;;;;;;5003940;28;49868;-70
2023/03/27 10:24:32;;;;;;;;;1.00;1.00;;;;;;;;5010731;28;50225;-69
2023/03/27 10:26:57;;;;;;;;;2.00;0.00;;;;;;;;5000224;28;49839;-69
2023/03/27 10:29:28;;;;;;;;;1.75;1.75;;;;;;;;5011415;28;49711;-68
2023/03/27 10:31:54;;;;;;;;;2.00;2.00;;;;;;;;5012008;28;50207;-66
2023/03/27 10:34:28;;;;;;;;;0.00;0.00;;;;;;;;5017024;28;51572;-68
2023/03/27 10:36:54;;;;;;;;;0.00;0.00;;;;;;;;5012823;28;49920;-68
2023/03/27 10:39:24;;;;;;;;;0.75;0.75;;;;;;;;5013672;28;49739;-65
2023/03/27 10:41:49;;;;;;;;;1.00;1.00;;;;;;;;5006205;28;50737;-66
2023/03/27 10:44:17;;;;;;;;;3.00;2.25;;;;;;;;5014366;28;50361;-66
2023/03/27 10:46:42;;;;;;;;;1.50;1.50;;;;;;;;5011733;28;49757;-65
2023/03/27 10:49:14;;;;;;;;;0.00;0.00;;;;;;;;5011838;28;49738;-65
2023/03/27 10:52:15;;;;;;;;;0.00;0.00;;;;;;;;5014470;28;49572;-64
2023/03/27 10:54:40;;;;;;;;;0.00;0.00;;;;;;;;4961718;28;50224;-66
2023/03/27 10:57:18;;;;;;;;;0.00;0.00;;;;;;;;4961532;28;49924;-65
2023/03/27 10:59:43;;;;;;;;;0.00;0.00;;;;;;;;4958697;28;49613;-66
2023/03/27 11:02:14;;;;;;;;;1.00;1.00;;;;;;;;4958490;28;49970;-66
2023/03/27 11:04:42;;;;;;;;;0.00;0.00;;;;;;;;4958986;28;49821;-65
2023/03/27 11:07:14;;;;;;;;;1.00;1.00;;;;;;;;4964401;28;49820;-64
2023/03/27 11:09:45;;;;;;;;;1.25;1.25;;;;;;;;4965469;28;50147;-67
2023/03/27 11:12:14;;;;;;;;;0.50;0.50;;;;;;;;4963326;28;49780;-63
2023/03/27 11:14:42;;;;;;;;;1.75;1.75;;;;;;;;4965427;28;49905;-64
2023/03/27 11:17:10;;;;;;;;;0.50;0.25;;;;;;;;4956840;28;49924;-65
2023/03/27 11:19:39;;;;;;;;;0.00;0.00;;;;;;;;4961165;28;49918;-65
2023/03/27 11:22:10;;;;;;;;;2.50;1.75;;;;;;;;4963656;28;50161;-65
2023/03/27 11:24:37;;;;;;;;;0.25;0.25;;;;;;;;4959539;28;50568;-66
2023/03/27 11:27:11;;;;;;;;;0.50;0.50;;;;;;;;4966104;28;49814;-66
2023/03/27 11:29:41;;;;;;;;;2.00;0.50;;;;;;;;5006462;28;49917;-65
2023/03/27 11:32:13;;;;;;;;;2.25;1.00;;;;;;;;5010897;28;49856;-66
2023/03/27 11:34:46;;;;;;;;;0.00;0.00;;;;;;;;5010368;28;50654;-65
2023/03/27 11:37:41;;;;;;;;;2.00;2.00;;;;;;;;5007366;28;49984;-65
2023/03/27 11:40:19;;;;;;;;;2.25;0.75;;;;;;;;4987218;28;49861;-66
2023/03/27 11:42:45;;;;;;;;;4.00;2.25;;;;;;;;5010891;28;49789;-65
2023/03/27 11:45:15;;;;;;;;;1.25;0.00;;;;;;;;5009958;28;50810;-66
2023/03/27 11:47:46;;;;;;;;;0.75;0.75;;;;;;;;5010337;28;49723;-65
2023/03/27 11:50:15;;;;;;;;;0.00;0.00;;;;;;;;5010031;28;49893;-65
2023/03/27 11:52:59;;;;;;;;;1.00;1.00;;;;;;;;5010665;28;49738;-65
2023/03/27 11:55:35;;;;;;;;;9.00;1.75;;;;;;;;5010235;28;49791;-65
2023/03/27 11:58:03;;;;;;;;;1.00;1.00;;;;;;;;5010106;28;49862;-67
2023/03/27 12:00:35;;;;;;;;;2.50;2.00;;;;;;;;4992451;28;50218;-66
2023/03/27 12:03:00;;;;;;;;;0.00;0.00;;;;;;;;5010578;28;49718;-66
2023/03/27 12:05:44;;;;;;;;;0.25;0.25;;;;;;;;5010217;28;49679;-65
2023/03/27 12:08:17;;;;;;;;;1.50;1.50;;;;;;;;5004481;28;50023;-65
2023/03/27 12:10:45;;;;;;;;;0.75;0.75;;;;;;;;5010166;28;50057;-66
2023/03/27 12:13:16;;;;;;;;;1.00;1.00;;;;;;;;5010205;28;49689;-65
2023/03/27 12:16:00;;;;;;;;;2.00;0.50;;;;;;;;5009371;28;51247;-66
2023/03/27 12:18:41;;;;;;;;;1.00;0.25;;;;;;;;5009987;28;50254;-65
2023/03/27 12:21:16;;;;;;;;;0.75;0.75;;;;;;;;5009734;28;49802;-64
2023/03/27 12:24:03;;;;;;;;;2.00;2.00;;;;;;;;5009590;28;49662;-64
2023/03/27 12:26:47;;;;;;;;;1.25;1.25;;;;;;;;5009582;28;49997;-64
2023/03/27 12:29:41;;;;;;;;;0.25;0.25;;;;;;;;5010131;28;49734;-64
2023/03/27 12:32:29;;;;;;;;;1.00;1.00;;;;;;;;5009437;28;50220;-65
2023/03/27 12:34:59;;;;;;;;;0.25;0.00;;;;;;;;4929037;28;49884;-65
2023/03/27 12:37:29;;;;;;;;;0.25;0.25;;;;;;;;4927722;28;50772;-65
2023/03/27 12:39:56;;;;;;;;;3.75;1.00;;;;;;;;4928923;28;49909;-65
2023/03/27 12:42:40;;;;;;;;;0.75;0.75;;;;;;;;4928924;28;49769;-65
2023/03/27 12:45:13;;;;;;;;;3.00;1.00;;;;;;;;4928661;28;49811;-65
2023/03/27 12:47:42;;;;;;;;;1.00;1.00;;;;;;;;4928789;28;49774;-65
2023/03/27 12:50:19;;;;;;;;;0.00;0.00;;;;;;;;4921935;28;50185;-65
2023/03/27 12:52:45;;;;;;;;;1.00;1.00;;;;;;;;4928685;28;50313;-65
2023/03/27 12:55:12;;;;;;;;;2.25;2.25;;;;;;;;4922398;28;50033;-65
2023/03/27 12:57:45;;;;;;;;;2.00;1.00;;;;;;;;4928639;28;49770;-66
2023/03/27 13:00:20;;;;;;;;;2.00;2.00;;;;;;;;4927599;28;49842;-65
2023/03/27 13:03:01;;;;;;;;;2.00;1.00;;;;;;;;4928479;28;49759;-66
2023/03/27 13:05:32;;;;;;;;;1.75;1.75;;;;;;;;4928502;28;49746;-65
2023/03/27 13:08:15;;;;;;;;;1.00;1.00;;;;;;;;4928148;28;51167;-66
2023/03/27 13:10:49;;;;;;;;;0.00;0.00;;;;;;;;4928428;28;49898;-66
2023/03/27 13:13:17;;;;;;;;;1.00;1.00;;;;;;;;5007459;28;49981;-67
2023/03/27 13:15:42;;;;;;;;;2.00;2.00;;;;;;;;5008817;28;49965;-67
2023/03/27 13:18:07;;;;;;;;;0.00;0.00;;;;;;;;5008323;28;51011;-67
2023/03/27 13:20:33;;;;;;;;;0.00;0.00;;;;;;;;5008548;28;49760;-66
2023/03/27 13:23:04;;;;;;;;;0.00;0.00;;;;;;;;5007318;28;51077;-66
2023/03/27 13:25:32;;;;;;;;;2.75;2.75;;;;;;;;5009523;28;49906;-67
2023/03/27 13:28:18;;;;;;;;;4.75;3.00;;;;;;;;5013072;28;49936;-66
2023/03/27 13:30:51;;;;;;;;;1.00;1.00;;;;;;;;5009444;28;49776;-67
2023/03/27 13:33:28;;;;;;;;;1.25;1.25;;;;;;;;5007983;28;49842;-67
2023/03/27 13:35:56;;;;;;;;;1.00;1.00;;;;;;;;5002908;28;49920;-67
2023/03/27 13:38:58;;;;;;;;;0.00;0.00;;;;;;;;5007804;28;49876;-65
2023/03/27 13:41:42;;;;;;;;;0.00;0.00;;;;;;;;4961681;28;49786;-66
2023/03/27 13:44:16;;;;;;;;;1.50;1.00;;;;;;;;4964824;28;50009;-66
2023/03/27 13:46:44;;;;;;;;;1.00;0.00;;;;;;;;4964929;28;49716;-67
2023/03/27 13:49:30;;;;;;;;;1.00;1.00;;;;;;;;4965986;28;50587;-67
2023/03/27 13:52:14;;;;;;;;;1.00;1.00;;;;;;;;4965660;28;50377;-67
2023/03/27 13:55:00;;;;;;;;;2.25;2.00;;;;;;;;4958968;28;49861;-67
2023/03/27 13:57:48;;;;;;;;;1.75;0.00;;;;;;;;4961917;28;49822;-67
2023/03/27 14:00:19;;;;;;;;;0.00;0.00;;;;;;;;4957274;28;49919;-68
2023/03/27 14:02:53;;;;;;;;;2.00;0.00;;;;;;;;4965047;28;49764;-69
2023/03/27 14:05:35;;;;;;;;;0.25;0.25;;;;;;;;4965745;28;49886;-67
2023/03/27 14:08:27;;;;;;;;;2.50;0.50;;;;;;;;4960303;28;50214;-68
2023/03/27 14:10:52;;;;;;;;;1.00;1.00;;;;;;;;4962101;28;50381;-68
2023/03/27 14:13:17;;;;;;;;;1.00;1.00;;;;;;;;4959421;28;49897;-67
2023/03/27 14:15:42;;;;;;;;;0.00;0.00;;;;;;;;4988554;28;50132;-67
2023/03/27 14:18:16;;;;;;;;;1.00;1.00;;;;;;;;5008236;28;49959;-68
2023/03/27 14:20:44;;;;;;;;;0.25;0.25;;;;;;;;5014857;28;50500;-66
2023/03/27 14:23:15;;;;;;;;;1.00;1.00;;;;;;;;5007754;28;49748;-67
2023/03/27 14:25:56;;;;;;;;;2.00;2.00;;;;;;;;5009126;28;49866;-66
2023/03/27 14:28:28;;;;;;;;;0.75;0.75;;;;;;;;5007434;28;49786;-67
2023/03/27 14:30:54;;;;;;;;;1.00;1.00;;;;;;;;5007460;28;49805;-68
2023/03/27 14:33:19;;;;;;;;;0.00;0.00;;;;;;;;5010963;28;49795;-68
2023/03/27 14:35:45;;;;;;;;;2.00;0.00;;;;;;;;5007266;28;49717;-68
2023/03/27 14:38:15;;;;;;;;;0.75;0.75;;;;;;;;5008419;28;49620;-67
2023/03/27 14:40:46;;;;;;;;;1.00;1.00;;;;;;;;5008050;28;50502;-67
2023/03/27 14:43:11;;;;;;;;;0.00;0.00;;;;;;;;5008849;28;50137;-67
2023/03/27 14:45:38;;;;;;;;;0.50;0.50;;;;;;;;5012825;28;49964;-68
2023/03/27 14:48:12;;;;;;;;;0.75;0.75;;;;;;;;5001244;28;49885;-67
2023/03/27 14:50:37;;;;;;;;;6.75;6.75;;;;;;;;5007258;28;49738;-67
2023/03/27 14:53:07;;;;;;;;;1.25;1.00;;;;;;;;4984857;28;49773;-67
2023/03/27 14:55:33;;;;;;;;;1.50;0.00;;;;;;;;5008344;28;50110;-67
2023/03/27 14:58:07;;;;;;;;;1.75;1.75;;;;;;;;5004899;28;50072;-69
2023/03/27 15:00:33;;;;;;;;;2.25;1.00;;;;;;;;5008234;28;50534;-68
2023/03/27 15:03:02;;;;;;;;;1.50;1.50;;;;;;;;5007147;28;50127;-68
2023/03/27 15:05:27;;;;;;;;;1.00;1.00;;;;;;;;5006120;28;49709;-68
2023/03/27 15:07:53;;;;;;;;;1.00;1.00;;;;;;;;5011206;28;49966;-68
2023/03/27 15:10:20;;;;;;;;;0.00;0.00;;;;;;;;5010769;28;50068;-68
2023/03/27 15:12:46;;;;;;;;;2.00;1.00;;;;;;;;5009149;28;50182;-68
2023/03/27 15:15:37;;;;;;;;;0.25;0.25;;;;;;;;5012199;28;49820;-69
2023/03/27 15:18:04;;;;;;;;;1.25;1.00;;;;;;;;5009336;28;50077;-69
2023/03/27 15:20:32;;;;;;;;;1.25;1.25;;;;;;;;5010481;28;50987;-69
2023/03/27 15:22:58;;;;;;;;;0.00;0.00;;;;;;;;5010160;28;49681;-70
2023/03/27 15:25:31;;;;;;;;;2.50;2.50;;;;;;;;5009870;28;50201;-69
2023/03/27 15:27:58;;;;;;;;;1.00;1.00;;;;;;;;5015917;28;49775;-70
2023/03/27 15:30:30;;;;;;;;;1.50;0.00;;;;;;;;5010174;28;51329;-69
2023/03/27 15:33:00;;;;;;;;;0.25;0.00;;;;;;;;5012441;28;49828;-68
2023/03/27 15:35:41;;;;;;;;;0.25;0.25;;;;;;;;5008068;28;49709;-67
2023/03/27 15:38:08;;;;;;;;;1.50;1.50;;;;;;;;5003336;28;49791;-68
2023/03/27 15:40:40;;;;;;;;;0.00;0.00;;;;;;;;5009560;28;50079;-67
2023/03/27 15:43:25;;;;;;;;;0.50;0.50;;;;;;;;5008992;28;50013;-67
2023/03/27 15:45:50;;;;;;;;;1.50;1.50;;;;;;;;5013371;28;50195;-68
2023/03/27 15:48:17;;;;;;;;;1.00;1.00;;;;;;;;5009487;28;49877;-68
2023/03/27 15:50:56;;;;;;;;;0.25;0.25;;;;;;;;5011416;28;50020;-68
2023/03/27 15:53:38;;;;;;;;;1.00;1.00;;;;;;;;5009050;28;49854;-68
2023/03/27 15:56:23;;;;;;;;;0.00;0.00;;;;;;;;5009434;28;50051;-68
2023/03/27 15:59:00;;;;;;;;;1.00;1.00;;;;;;;;5007602;28;50056;-68
2023/03/27 16:01:46;;;;;;;;;1.00;1.00;;;;;;;;5012347;28;49896;-69
2023/03/27 16:04:11;;;;;;;;;1.00;1.00;;;;;;;;5014226;28;49924;-70
2023/03/27 16:06:39;;;;;;;;;1.00;0.40;;;;;;;;5013343;28;50138;-70
2023/03/27 16:09:08;;;;;;;;;1.00;1.00;;;;;;;;5008379;28;50412;-70
2023/03/27 16:11:42;;;;;;;;;2.00;2.00;;;;;;;;5010073;28;50537;-69
2023/03/27 16:14:19;;;;;;;;;1.75;1.50;;;;;;;;5013897;28;49931;-69
2023/03/27 16:16:45;;;;;;;;;2.00;2.00;;;;;;;;5011907;28;49674;-71
2023/03/27 16:19:11;;;;;;;;;1.00;1.00;;;;;;;;5014355;28;49739;-71
2023/03/27 16:21:36;;;;;;;;;1.50;0.25;;;;;;;;5011520;28;50142;-71
2023/03/27 16:24:02;;;;;;;;;2.25;1.50;;;;;;;;5010223;28;49873;-69
2023/03/27 16:26:31;;;;;;;;;1.25;1.00;;;;;;;;5015015;28;49838;-70
2023/03/27 16:28:58;;;;;;;;;0.75;0.75;;;;;;;;5012870;28;49812;-66
2023/03/27 16:31:24;;;;;;;;;0.00;0.00;;;;;;;;5003576;28;50842;-67
2023/03/27 16:33:49;;;;;;;;;0.75;0.25;;;;;;;;5013143;28;49990;-67
2023/03/27 16:36:18;;;;;;;;;1.00;1.00;;;;;;;;5001437;28;50023;-69
2023/03/27 16:38:43;;;;;;;;;0.00;0.00;;;;;;;;5029742;28;49744;-70
2023/03/27 16:41:12;;;;;;;;;1.75;1.75;;;;;;;;5028904;28;49636;-69
2023/03/27 16:43:38;;;;;;;;;1.00;1.00;;;;;;;;5028538;28;49996;-69
2023/03/27 16:46:03;;;;;;;;;0.00;0.00;;;;;;;;5029568;28;50208;-70
2023/03/27 16:48:28;;;;;;;;;2.00;1.00;;;;;;;;5029773;28;49874;-68
2023/03/27 16:50:53;;;;;;;;;2.00;1.00;;;;;;;;5029310;28;50818;-70
2023/03/27 16:53:19;;;;;;;;;0.25;0.25;;;;;;;;5029422;28;50133;-67
2023/03/27 16:55:44;;;;;;;;;3.50;1.50;;;;;;;;5029396;28;49876;-68
2023/03/27 16:58:09;;;;;;;;;1.00;1.00;;;;;;;;5029372;28;49876;-68
2023/03/27 17:00:34;;;;;;;;;2.00;2.00;;;;;;;;5011284;28;50014;-69
2023/03/27 17:03:00;;;;;;;;;1.00;1.00;;;;;;;;5029246;28;49884;-68
2023/03/27 17:05:25;;;;;;;;;2.00;1.00;;;;;;;;5029031;28;49771;-69
2023/03/27 17:07:50;;;;;;;;;2.00;2.00;;;;;;;;5029698;28;49636;-68
2023/03/27 17:10:15;;;;;;;;;2.00;1.00;;;;;;;;5025981;28;51078;-67
2023/03/27 17:12:41;;;;;;;;;0.50;0.50;;;;;;;;5028050;28;49773;-68
2023/03/27 17:15:06;;;;;;;;;2.00;1.00;;;;;;;;5029084;28;50016;-68
2023/03/27 17:17:31;;;;;;;;;1.00;1.00;;;;;;;;5029065;28;49634;-69
2023/03/27 17:19:56;;;;;;;;;1.00;1.00;;;;;;;;5008560;28;51154;-67
2023/03/27 17:22:22;;;;;;;;;1.00;1.00;;;;;;;;5022267;28;49543;-68
2023/03/27 17:24:47;;;;;;;;;0.00;0.00;;;;;;;;5028903;28;49748;-69
2023/03/27 17:27:12;;;;;;;;;0.00;0.00;;;;;;;;5027758;28;49981;-68
2023/03/27 17:29:40;;;;;;;;;1.25;1.00;;;;;;;;5026953;28;49800;-67
2023/03/27 17:32:06;;;;;;;;;1.00;1.00;;;;;;;;5020287;28;51000;-68
2023/03/27 17:34:31;;;;;;;;;1.25;1.25;;;;;;;;5028460;28;49798;-68
2023/03/27 17:36:56;;;;;;;;;1.00;0.00;;;;;;;;5028451;28;50098;-69
2023/03/27 17:44:47;;;;;;;;;0.00;0.00;;;;;;;;4619310;22;51800;-72
2023/03/27 17:47:13;;;;;;;;;1.00;1.00;;;;;;;;5045453;28;52191;-73
2023/03/27 17:49:38;;;;;;;;;1.50;0.75;;;;;;;;5049726;28;50780;-72
2023/03/27 17:52:06;;;;;;;;;2.25;2.25;;;;;;;;5067769;28;50118;-74
2023/03/27 17:54:32;;;;;;;;;1.00;1.00;;;;;;;;5068586;28;49768;-77
2023/03/27 17:56:57;;;;;;;;;1.00;1.00;;;;;;;;5067744;28;50290;-81
2023/03/27 17:59:24;;;;;;;;;1.50;1.50;;;;;;;;5069249;28;50255;-79
2023/03/27 18:01:49;;;;;;;;;1.00;1.00;;;;;;;;5068423;28;49746;-75
2023/03/27 18:04:16;;;;;;;;;1.00;1.00;;;;;;;;5068947;28;49657;-76
2023/03/27 18:06:41;;;;;;;;;1.75;1.75;;;;;;;;5060125;28;49939;-75
2023/03/27 18:09:08;;;;;;;;;2.25;1.25;;;;;;;;5068967;28;49787;-79
2023/03/27 18:11:33;;;;;;;;;2.25;1.75;;;;;;;;5059832;28;50119;-83
2023/03/27 18:13:59;;;;;;;;;1.50;1.00;;;;;;;;5067594;28;50048;-91
2023/03/27 18:16:24;;;;;;;;;2.00;2.00;;;;;;;;5052391;28;49707;-74
2023/03/27 18:18:51;;;;;;;;;2.00;1.50;;;;;;;;5050429;28;51349;-80
2023/03/27 18:21:16;;;;;;;;;4.25;4.25;;;;;;;;5061827;28;49816;-74
2023/03/27 18:23:41;;;;;;;;;5.00;5.00;;;;;;;;5067461;28;49748;-70
2023/03/27 18:26:07;;;;;;;;;1.50;1.50;;;;;;;;5069438;28;49641;-77
2023/03/27 18:28:32;;;;;;;;;8.00;3.25;;;;;;;;5067926;28;49743;-78
2023/03/27 18:31:02;;;;;;;;;3.75;3.75;;;;;;;;5067973;28;49759;-88
2023/03/27 18:33:28;;;;;;;;;7.50;3.00;;;;;;;;5069674;28;49999;-83
2023/03/27 18:35:54;;;;;;;;;1.75;1.75;;;;;;;;5069055;28;49647;-77
2023/03/27 18:38:20;;;;;;;;;2.75;2.75;;;;;;;;5066758;28;50134;-74
2023/03/27 18:40:45;;;;;;;;;1.25;1.00;;;;;;;;5071864;28;49732;-78
2023/03/27 18:43:11;;;;;;;;;3.25;2.00;;;;;;;;5071516;28;50086;-77
2023/03/27 18:45:36;;;;;;;;;1.50;1.50;;;;;;;;5078786;27;50140;-74
2023/03/27 19:08:50;;;;;;;;;1.75;1.75;;;;;;;;4857306;28;50729;-75
2023/03/27 19:11:15;;;;;;;;;2.00;2.00;;;;;;;;5041065;28;49766;-74
2023/03/27 19:13:40;;;;;;;;;3.50;2.00;;;;;;;;5033179;28;49776;-75
2023/03/27 19:16:06;;;;;;;;;5.50;3.75;;;;;;;;5041627;28;50075;-74
2023/03/27 19:18:31;;;;;;;;;3.25;3.25;;;;;;;;5033244;28;50122;-76
2023/03/27 19:20:59;;;;;;;;;4.50;4.00;;;;;;;;5050613;28;50394;-74
2023/03/27 19:23:25;;;;;;;;;6.75;4.25;;;;;;;;5050146;28;49669;-73
2023/03/27 19:25:51;;;;;;;;;1.00;1.00;;;;;;;;5050553;28;49888;-76
2023/03/27 19:28:16;;;;;;;;;1.75;1.75;;;;;;;;5051185;28;50415;-77
2023/03/27 19:30:41;;;;;;;;;2.00;2.00;;;;;;;;5050306;28;50657;-76
2023/03/27 19:33:07;;;;;;;;;4.75;3.00;;;;;;;;5050782;28;50014;-75
2023/03/27 19:35:32;;;;;;;;;3.50;3.00;;;;;;;;5050503;28;49860;-76
2023/03/27 19:37:57;;;;;;;;;3.00;3.00;;;;;;;;5050881;28;50072;-73
2023/03/27 19:40:23;;;;;;;;;3.00;3.00;;;;;;;;5053352;28;49761;-74
2023/03/27 19:42:48;;;;;;;;;2.00;2.00;;;;;;;;5046945;28;50159;-75
